Time;durP1;ratioP1;P1;durP2;ratioP2;P2;SDS_P1;SDS_P2;PMS_P1;PMS_P2;Temp;Humidity;BMP_temperature;BMP_pressure;BME280_temperature;BME280_humidity;BME280_pressure;Samples;Min_cycle;Max_cycle;Signal;HPM_P1;HPM_P2
2022/08/07 00:01:07;;;;;;;9.85;5.78;;;15.90;99.90;;;;;;5096210;28;20068;-74
2022/08/07 00:03:32;;;;;;;9.95;6.43;;;15.90;99.90;;;;;;5079625;28;20021;-73
2022/08/07 00:05:58;;;;;;;12.68;8.30;;;15.90;99.90;;;;;;5097227;28;20244;-74
2022/08/07 00:08:24;;;;;;;13.13;9.65;;;15.80;99.90;;;;;;5096956;28;20056;-74
2022/08/07 00:10:51;;;;;;;16.45;11.60;;;15.80;99.90;;;;;;5097428;28;20064;-74
2022/08/07 00:13:18;;;;;;;15.20;11.07;;;15.80;99.90;;;;;;5097341;28;20017;-74
2022/08/07 00:15:44;;;;;;;14.20;9.52;;;15.80;99.90;;;;;;5096896;28;20063;-74
2022/08/07 00:18:10;;;;;;;12.48;9.48;;;15.80;99.90;;;;;;5097389;28;20028;-74
2022/08/07 00:20:37;;;;;;;14.10;9.13;;;15.70;99.90;;;;;;5096946;28;20119;-73
2022/08/07 00:23:05;;;;;;;12.38;8.10;;;15.70;99.90;;;;;;5097240;28;20045;-72
2022/08/07 00:25:31;;;;;;;15.15;7.47;;;15.70;99.90;;;;;;5097101;28;20012;-75
2022/08/07 00:27:57;;;;;;;13.40;8.23;;;15.70;99.90;;;;;;5097812;28;20021;-74
2022/08/07 00:30:23;;;;;;;11.30;7.65;;;15.70;99.90;;;;;;5096704;28;20032;-74
2022/08/07 00:32:49;;;;;;;12.63;8.25;;;15.60;99.90;;;;;;5097100;28;20319;-74
2022/08/07 00:35:17;;;;;;;11.98;7.57;;;15.60;99.90;;;;;;5096239;28;20028;-74
2022/08/07 00:37:43;;;;;;;12.00;7.00;;;15.60;99.90;;;;;;5096675;28;20044;-74
2022/08/07 00:40:09;;;;;;;10.93;6.38;;;15.60;99.90;;;;;;5095685;28;20043;-75
2022/08/07 00:42:35;;;;;;;9.15;6.50;;;15.50;99.90;;;;;;5095821;28;20032;-73
2022/08/07 00:45:01;;;;;;;8.57;6.53;;;15.50;99.90;;;;;;5092213;28;20024;-73
2022/08/07 00:47:26;;;;;;;12.43;6.63;;;15.50;99.90;;;;;;5095841;28;20020;-74
2022/08/07 00:49:52;;;;;;;8.60;6.25;;;15.40;99.90;;;;;;5094775;28;20013;-74
2022/08/07 00:52:18;;;;;;;10.30;5.90;;;15.40;99.90;;;;;;5094699;28;20056;-73
2022/08/07 00:54:47;;;;;;;8.88;6.32;;;15.40;99.90;;;;;;5094197;28;20032;-73
2022/08/07 00:57:13;;;;;;;9.10;6.10;;;15.40;99.90;;;;;;5094504;28;20028;-73
2022/08/07 00:59:38;;;;;;;11.27;6.35;;;15.40;99.90;;;;;;5093893;28;20012;-74
2022/08/07 01:02:05;;;;;;;11.05;6.47;;;15.30;99.90;;;;;;5089750;28;20025;-74
2022/08/07 01:04:31;;;;;;;8.88;6.07;;;15.30;99.90;;;;;;5077103;28;20005;-73
2022/08/07 01:07:00;;;;;;;8.98;5.68;;;15.30;99.90;;;;;;5093150;28;20021;-73
2022/08/07 01:09:26;;;;;;;8.13;6.25;;;15.40;99.90;;;;;;5093782;28;20035;-74
2022/08/07 01:11:52;;;;;;;10.23;6.38;;;15.30;99.90;;;;;;5093721;28;20048;-74
2022/08/07 01:14:22;;;;;;;9.10;5.82;;;15.30;99.90;;;;;;5093722;28;20036;-73
2022/08/07 01:16:49;;;;;;;8.10;5.93;;;15.30;99.90;;;;;;5093781;28;20016;-73
2022/08/07 01:19:15;;;;;;;8.60;5.43;;;15.30;99.90;;;;;;5093210;28;20021;-73
2022/08/07 01:21:42;;;;;;;7.38;5.25;;;15.30;99.90;;;;;;5093760;28;20012;-73
2022/08/07 01:24:08;;;;;;;7.80;5.28;;;15.20;99.90;;;;;;5093418;28;20067;-75
2022/08/07 01:26:34;;;;;;;7.78;5.45;;;15.20;99.90;;;;;;5093010;28;20024;-73
2022/08/07 01:29:00;;;;;;;7.43;5.45;;;15.20;99.90;;;;;;5092876;28;20024;-74
2022/08/07 01:31:32;;;;;;;7.95;5.18;;;15.20;99.90;;;;;;5092875;28;20082;-73
2022/08/07 01:33:58;;;;;;;7.60;5.60;;;15.20;99.90;;;;;;5092352;28;20031;-73
2022/08/07 01:36:27;;;;;;;7.20;5.20;;;15.10;99.90;;;;;;5092337;28;20021;-73
2022/08/07 01:38:53;;;;;;;7.45;5.47;;;15.10;99.90;;;;;;5094041;28;20420;-74
2022/08/07 01:41:19;;;;;;;8.05;5.30;;;15.10;99.90;;;;;;5096027;28;20008;-74
2022/08/07 01:43:46;;;;;;;8.05;5.10;;;15.10;99.90;;;;;;5095165;28;20017;-75
2022/08/07 01:46:12;;;;;;;7.85;4.82;;;15.10;99.90;;;;;;5095246;28;20029;-74
2022/08/07 01:48:39;;;;;;;7.85;5.05;;;15.10;99.90;;;;;;5095321;28;20020;-73
2022/08/07 01:51:08;;;;;;;6.72;5.03;;;15.00;99.90;;;;;;5094804;28;20065;-73
2022/08/07 01:53:37;;;;;;;7.22;4.90;;;15.00;99.90;;;;;;5077989;28;20032;-75
2022/08/07 01:56:11;;;;;;;7.95;5.18;;;15.00;99.90;;;;;;5094442;28;20107;-74
2022/08/07 01:58:42;;;;;;;7.55;5.15;;;15.00;99.90;;;;;;5094377;28;20009;-73
2022/08/07 02:01:14;;;;;;;6.28;5.00;;;15.00;99.90;;;;;;5094680;28;20076;-74
2022/08/07 02:03:49;;;;;;;7.63;4.97;;;14.90;99.90;;;;;;5088516;28;20005;-74
2022/08/07 02:06:17;;;;;;;7.32;4.70;;;14.90;99.90;;;;;;5092429;28;20056;-74
2022/08/07 02:08:45;;;;;;;6.00;4.80;;;14.90;99.90;;;;;;5094390;28;20027;-73
2022/08/07 02:11:11;;;;;;;8.45;5.20;;;14.90;99.90;;;;;;5094021;28;20059;-74
2022/08/07 02:13:38;;;;;;;7.63;5.45;;;14.90;99.90;;;;;;5094622;28;20020;-73
2022/08/07 02:16:05;;;;;;;8.52;5.15;;;14.90;99.90;;;;;;5094416;28;20016;-74
2022/08/07 02:18:35;;;;;;;6.80;5.28;;;14.90;99.90;;;;;;5093632;28;20025;-75
2022/08/07 02:21:02;;;;;;;7.72;5.32;;;14.80;99.90;;;;;;5094687;28;20025;-75
2022/08/07 02:23:31;;;;;;;6.78;5.15;;;14.80;99.90;;;;;;5094399;28;20055;-74
2022/08/07 02:25:58;;;;;;;8.65;5.13;;;14.80;99.90;;;;;;5077157;28;20020;-74
2022/08/07 02:28:27;;;;;;;6.25;4.93;;;14.80;99.90;;;;;;5094946;28;20016;-73
2022/08/07 02:30:55;;;;;;;7.40;5.10;;;14.80;99.90;;;;;;5094733;28;20035;-75
2022/08/07 02:33:23;;;;;;;7.63;5.25;;;14.80;99.90;;;;;;5089535;28;20040;-74
2022/08/07 02:35:51;;;;;;;6.68;4.80;;;14.70;99.90;;;;;;5090377;28;20021;-73
2022/08/07 02:38:18;;;;;;;8.93;5.00;;;14.70;99.90;;;;;;5092819;28;20031;-74
2022/08/07 02:40:44;;;;;;;9.20;5.22;;;14.70;99.90;;;;;;5093503;28;20005;-74
2022/08/07 02:43:09;;;;;;;7.82;5.40;;;14.70;99.90;;;;;;5094519;28;20027;-74
2022/08/07 02:45:39;;;;;;;6.32;4.90;;;14.70;99.90;;;;;;5092649;28;20029;-74
2022/08/07 02:48:04;;;;;;;9.82;5.75;;;14.60;99.90;;;;;;5094647;28;20032;-74
2022/08/07 02:50:35;;;;;;;6.38;5.20;;;14.60;99.90;;;;;;5094328;28;20021;-73
2022/08/07 02:53:15;;;;;;;9.68;5.70;;;14.60;99.90;;;;;;5094592;28;20055;-73
2022/08/07 02:55:46;;;;;;;7.70;5.70;;;14.60;99.90;;;;;;5091260;28;20112;-74
2022/08/07 02:58:18;;;;;;;10.68;5.85;;;14.60;99.90;;;;;;5093603;28;20021;-75
2022/08/07 03:00:45;;;;;;;9.93;6.30;;;14.60;99.90;;;;;;5088244;28;20045;-74
2022/08/07 03:03:11;;;;;;;13.80;7.65;;;14.50;99.90;;;;;;5093316;28;20036;-75
2022/08/07 03:05:37;;;;;;;12.48;7.95;;;14.50;99.90;;;;;;5076313;28;20056;-73
2022/08/07 03:08:06;;;;;;;14.10;7.15;;;14.50;99.90;;;;;;5094101;28;20001;-74
2022/08/07 03:10:32;;;;;;;9.45;6.50;;;14.50;99.90;;;;;;5094798;28;20005;-73
2022/08/07 03:12:59;;;;;;;9.57;5.68;;;14.50;99.90;;;;;;5093696;28;20023;-73
2022/08/07 03:15:25;;;;;;;10.20;6.00;;;14.50;99.90;;;;;;5093183;28;20099;-74
2022/08/07 03:17:51;;;;;;;9.75;6.20;;;14.50;99.90;;;;;;5093859;28;20024;-74
2022/08/07 03:20:17;;;;;;;9.60;6.72;;;14.40;99.90;;;;;;5093872;28;20020;-73
2022/08/07 03:22:45;;;;;;;9.00;6.25;;;14.40;99.90;;;;;;5094496;28;20013;-75
2022/08/07 03:25:10;;;;;;;7.78;5.70;;;14.40;99.90;;;;;;5094781;28;20036;-75
2022/08/07 03:27:37;;;;;;;10.57;5.70;;;14.30;99.90;;;;;;5094745;28;20059;-74
2022/08/07 03:30:04;;;;;;;9.10;5.95;;;14.30;99.90;;;;;;5096129;28;20020;-74
2022/08/07 03:32:40;;;;;;;8.93;5.30;;;14.40;99.90;;;;;;5098503;28;20068;-73
2022/08/07 03:35:12;;;;;;;8.15;5.63;;;14.30;99.90;;;;;;5098572;28;20319;-75
2022/08/07 03:37:38;;;;;;;9.45;5.28;;;14.30;99.90;;;;;;5098254;28;20017;-74
2022/08/07 03:40:05;;;;;;;8.25;5.78;;;14.30;99.90;;;;;;5098549;28;20019;-74
2022/08/07 03:42:33;;;;;;;10.10;6.25;;;14.30;99.90;;;;;;5098099;28;20025;-75
2022/08/07 03:44:59;;;;;;;8.32;5.72;;;14.20;99.90;;;;;;5098131;28;20080;-74
2022/08/07 03:47:26;;;;;;;10.00;5.38;;;14.20;99.90;;;;;;5098290;28;20021;-74
2022/08/07 03:49:52;;;;;;;7.25;5.50;;;14.20;99.90;;;;;;5098696;28;20037;-75
2022/08/07 03:52:21;;;;;;;9.77;5.72;;;14.20;99.90;;;;;;5098627;28;20031;-74
2022/08/07 03:54:47;;;;;;;9.90;5.43;;;14.20;99.90;;;;;;5098321;28;20020;-74
2022/08/07 03:57:14;;;;;;;7.63;5.28;;;14.10;99.90;;;;;;5098687;28;20028;-75
2022/08/07 03:59:40;;;;;;;9.77;5.43;;;14.10;99.90;;;;;;5098117;28;20035;-74
2022/08/07 04:02:07;;;;;;;9.70;5.18;;;14.10;99.90;;;;;;5098566;28;20054;-74
2022/08/07 04:04:33;;;;;;;8.93;5.32;;;14.10;99.90;;;;;;5097840;28;20020;-74
2022/08/07 04:06:59;;;;;;;7.20;5.40;;;14.10;99.90;;;;;;5097700;28;20076;-74
2022/08/07 04:09:26;;;;;;;8.60;5.53;;;14.00;99.90;;;;;;5098037;28;20013;-73
2022/08/07 04:11:52;;;;;;;9.05;5.40;;;14.00;99.90;;;;;;5097827;28;20024;-74
2022/08/07 04:14:19;;;;;;;8.15;5.45;;;14.00;99.90;;;;;;5097786;28;20035;-74
2022/08/07 04:16:44;;;;;;;9.45;5.32;;;14.00;99.90;;;;;;5097683;28;20019;-76
2022/08/07 04:19:10;;;;;;;8.82;5.25;;;14.00;99.90;;;;;;5098006;28;20016;-74
2022/08/07 04:21:35;;;;;;;9.15;5.28;;;14.00;99.90;;;;;;5098271;28;20065;-76
2022/08/07 04:24:02;;;;;;;7.88;5.28;;;14.00;99.90;;;;;;5097751;28;20060;-73
2022/08/07 04:26:28;;;;;;;9.25;4.93;;;14.00;99.90;;;;;;5096676;28;20036;-73
2022/08/07 04:28:53;;;;;;;8.93;5.03;;;14.00;99.90;;;;;;5097016;28;20032;-73
2022/08/07 04:31:23;;;;;;;7.03;5.13;;;14.00;99.90;;;;;;5097389;28;20047;-74
2022/08/07 04:33:49;;;;;;;7.47;4.85;;;14.00;99.90;;;;;;5097338;28;20046;-74
2022/08/07 04:36:14;;;;;;;6.72;4.90;;;14.00;99.90;;;;;;5089310;28;20005;-73
2022/08/07 04:38:40;;;;;;;8.00;5.15;;;14.00;99.90;;;;;;5091178;28;20607;-74
2022/08/07 04:41:05;;;;;;;7.38;4.80;;;14.00;99.90;;;;;;5095671;28;20092;-74
2022/08/07 04:43:43;;;;;;;6.65;4.75;;;14.00;99.90;;;;;;5095330;28;20024;-72
2022/08/07 04:46:12;;;;;;;7.63;4.85;;;14.00;99.90;;;;;;5094769;28;20017;-73
2022/08/07 04:48:45;;;;;;;7.03;4.75;;;14.00;99.90;;;;;;5077803;28;20016;-73
2022/08/07 04:51:32;;;;;;;7.45;5.07;;;14.00;99.90;;;;;;5077900;28;20024;-73
2022/08/07 04:54:07;;;;;;;7.22;4.78;;;14.00;99.90;;;;;;5094548;28;20029;-73
2022/08/07 04:56:53;;;;;;;7.55;5.07;;;14.00;99.90;;;;;;5095422;28;20051;-72
2022/08/07 04:59:45;;;;;;;7.97;5.60;;;14.00;99.90;;;;;;5095719;28;20029;-74
2022/08/07 05:02:26;;;;;;;7.93;5.10;;;14.00;99.90;;;;;;5093567;28;20051;-73
2022/08/07 05:05:10;;;;;;;7.38;5.25;;;14.00;99.90;;;;;;5094754;28;20025;-73
2022/08/07 05:07:42;;;;;;;7.72;5.05;;;14.00;99.90;;;;;;5086288;28;20039;-75
2022/08/07 05:10:15;;;;;;;9.90;5.05;;;14.00;99.90;;;;;;5095248;28;20009;-74
2022/08/07 05:12:48;;;;;;;8.65;5.13;;;14.00;99.90;;;;;;5095503;28;20024;-74
2022/08/07 05:15:21;;;;;;;7.47;5.35;;;14.00;99.90;;;;;;5095464;28;20024;-74
2022/08/07 05:17:50;;;;;;;8.10;5.25;;;14.10;99.90;;;;;;5096210;28;20012;-75
2022/08/07 05:20:20;;;;;;;8.68;5.60;;;14.10;99.90;;;;;;5091252;28;20024;-74
2022/08/07 05:22:50;;;;;;;6.32;4.85;;;14.10;99.90;;;;;;5096133;28;20016;-75
2022/08/07 05:25:18;;;;;;;7.07;5.18;;;14.10;99.90;;;;;;5095207;28;20341;-73
2022/08/07 05:27:45;;;;;;;8.40;5.50;;;14.20;99.90;;;;;;5094622;28;20025;-74
2022/08/07 05:30:12;;;;;;;11.13;5.75;;;14.20;99.90;;;;;;5094764;28;20077;-73
2022/08/07 05:32:39;;;;;;;7.68;5.43;;;14.20;99.90;;;;;;5095094;28;20024;-73
2022/08/07 05:35:07;;;;;;;6.88;5.30;;;14.20;99.90;;;;;;5095824;28;20024;-73
2022/08/07 05:37:34;;;;;;;8.73;5.95;;;14.30;99.90;;;;;;5094656;28;20020;-73
2022/08/07 05:40:00;;;;;;;7.38;5.90;;;14.30;99.90;;;;;;5095639;28;20056;-75
2022/08/07 05:42:26;;;;;;;10.38;6.47;;;14.30;99.90;;;;;;5094623;28;20096;-74
2022/08/07 05:44:53;;;;;;;8.32;6.32;;;14.30;99.90;;;;;;5095279;28;20062;-74
2022/08/07 05:47:20;;;;;;;7.75;6.18;;;14.40;99.90;;;;;;5095387;28;20005;-73
2022/08/07 05:49:49;;;;;;;7.68;5.90;;;14.40;99.90;;;;;;5095212;28;20035;-74
2022/08/07 05:52:15;;;;;;;9.00;6.43;;;14.40;99.90;;;;;;5094409;28;20050;-75
2022/08/07 05:54:41;;;;;;;10.45;7.00;;;14.40;99.90;;;;;;5094645;28;20033;-75
2022/08/07 05:57:07;;;;;;;9.05;6.72;;;14.50;99.90;;;;;;5077868;28;20092;-75
2022/08/07 05:59:37;;;;;;;10.85;6.88;;;14.50;99.90;;;;;;5094509;28;20017;-74
2022/08/07 06:02:05;;;;;;;9.77;6.80;;;14.60;99.90;;;;;;5094186;28;20092;-73
2022/08/07 06:04:35;;;;;;;11.05;7.38;;;14.60;99.90;;;;;;5086591;28;20066;-73
2022/08/07 06:07:04;;;;;;;8.80;6.60;;;14.60;99.90;;;;;;5093708;28;20040;-74
2022/08/07 06:09:33;;;;;;;8.82;6.90;;;14.70;99.90;;;;;;5094211;28;20110;-73
2022/08/07 06:11:59;;;;;;;11.85;7.60;;;14.70;99.90;;;;;;5093653;28;20004;-74
2022/08/07 06:14:25;;;;;;;12.10;8.02;;;14.80;99.90;;;;;;5093695;28;20013;-74
2022/08/07 06:16:52;;;;;;;14.73;8.57;;;14.80;99.90;;;;;;5094473;28;20040;-73
2022/08/07 06:19:19;;;;;;;12.65;8.88;;;14.90;99.90;;;;;;5094808;28;20000;-74
2022/08/07 06:21:48;;;;;;;12.35;8.57;;;15.00;99.90;;;;;;5094938;28;20050;-75
2022/08/07 06:24:14;;;;;;;15.13;9.75;;;15.00;99.90;;;;;;5087207;28;20052;-74
2022/08/07 06:26:40;;;;;;;14.00;8.95;;;15.10;99.90;;;;;;5087155;28;20035;-73
2022/08/07 06:29:06;;;;;;;14.50;9.40;;;15.10;99.90;;;;;;5085973;28;20017;-75
2022/08/07 06:31:32;;;;;;;15.20;9.73;;;15.20;99.90;;;;;;5080478;28;20089;-75
2022/08/07 06:33:57;;;;;;;16.05;10.10;;;15.20;99.90;;;;;;5086703;28;20029;-74
2022/08/07 06:36:25;;;;;;;17.50;10.02;;;15.20;99.90;;;;;;5089684;28;20008;-74
2022/08/07 06:38:52;;;;;;;14.30;9.65;;;15.30;99.90;;;;;;5087447;28;20025;-74
2022/08/07 06:41:38;;;;;;;16.80;10.07;;;15.30;99.90;;;;;;5079453;28;20035;-73
2022/08/07 06:44:05;;;;;;;16.60;9.13;;;15.40;99.90;;;;;;5078360;28;20028;-73
2022/08/07 06:46:31;;;;;;;10.82;8.35;;;15.40;99.90;;;;;;5087303;28;20727;-74
2022/08/07 06:48:56;;;;;;;11.32;8.60;;;15.50;99.90;;;;;;5089743;28;20037;-74
2022/08/07 06:51:26;;;;;;;12.77;8.82;;;15.50;99.90;;;;;;5091412;28;20032;-75
2022/08/07 06:53:54;;;;;;;14.52;9.30;;;15.60;99.90;;;;;;5074774;28;20021;-75
2022/08/07 06:56:38;;;;;;;15.63;9.05;;;15.70;99.90;;;;;;5091272;28;20361;-74
2022/08/07 06:59:07;;;;;;;17.15;10.43;;;15.80;99.90;;;;;;5089248;28;20012;-73
2022/08/07 07:01:34;;;;;;;14.15;8.98;;;15.90;99.90;;;;;;5088452;28;20028;-75
2022/08/07 07:04:00;;;;;;;14.30;10.07;;;15.90;99.90;;;;;;5087761;28;20017;-75
2022/08/07 07:06:25;;;;;;;14.82;10.02;;;16.10;99.90;;;;;;5096265;28;20092;-73
2022/08/07 07:08:51;;;;;;;18.20;10.18;;;16.20;99.90;;;;;;5089924;28;20039;-73
2022/08/07 07:11:17;;;;;;;19.48;11.90;;;16.30;99.90;;;;;;5092282;28;20017;-75
2022/08/07 07:13:48;;;;;;;16.08;10.70;;;16.40;99.90;;;;;;5093887;28;20133;-73
2022/08/07 07:16:22;;;;;;;11.15;8.40;;;16.50;99.90;;;;;;5082540;28;20087;-73
2022/08/07 07:18:54;;;;;;;9.30;6.63;;;16.60;99.90;;;;;;5083218;28;20035;-73
2022/08/07 07:21:25;;;;;;;10.93;6.50;;;16.80;99.90;;;;;;5087377;28;20146;-73
2022/08/07 07:23:51;;;;;;;11.30;7.05;;;16.90;99.90;;;;;;5054661;28;20068;-73
2022/08/07 07:26:21;;;;;;;8.55;6.10;;;17.00;99.90;;;;;;5063099;28;20414;-73
2022/08/07 07:28:54;;;;;;;11.68;7.03;;;17.20;99.90;;;;;;5065010;28;20027;-73
2022/08/07 07:31:30;;;;;;;10.25;6.55;;;17.40;99.90;;;;;;5063598;28;20455;-72
2022/08/07 07:34:02;;;;;;;9.80;6.35;;;17.60;99.90;;;;;;5061263;28;20040;-73
2022/08/07 07:36:28;;;;;;;8.00;5.10;;;17.70;99.90;;;;;;5063722;28;20064;-73
2022/08/07 07:38:54;;;;;;;8.45;3.78;;;17.90;99.90;;;;;;5064435;28;20017;-73
2022/08/07 07:41:22;;;;;;;5.25;3.17;;;18.00;99.90;;;;;;5063278;28;20048;-75
2022/08/07 07:43:51;;;;;;;10.27;4.20;;;18.10;99.90;;;;;;5064807;28;20455;-71
2022/08/07 07:46:17;;;;;;;6.95;4.57;;;18.20;99.90;;;;;;5066712;28;20044;-72
2022/08/07 07:48:45;;;;;;;8.98;4.40;;;18.30;99.90;;;;;;5067501;28;20035;-72
2022/08/07 07:51:12;;;;;;;6.60;3.38;;;18.50;99.90;;;;;;5055822;28;20025;-71
2022/08/07 07:53:42;;;;;;;6.38;3.25;;;18.60;99.90;;;;;;5059577;28;20021;-72
2022/08/07 07:56:09;;;;;;;10.02;4.18;;;18.80;99.90;;;;;;5062996;28;20369;-71
2022/08/07 07:58:37;;;;;;;5.18;3.13;;;19.00;99.90;;;;;;5060720;28;20104;-72
2022/08/07 08:01:04;;;;;;;6.95;3.47;;;19.20;99.90;;;;;;5063867;28;20037;-72
2022/08/07 08:03:32;;;;;;;7.53;3.33;;;19.40;99.90;;;;;;5050883;28;20153;-72
2022/08/07 08:05:58;;;;;;;8.02;3.72;;;19.60;99.90;;;;;;5056774;28;20109;-72
2022/08/07 08:08:26;;;;;;;5.15;3.58;;;19.70;99.90;;;;;;5062851;28;20053;-72
2022/08/07 08:10:52;;;;;;;7.15;3.80;;;19.90;99.90;;;;;;5063757;28;20029;-72
2022/08/07 08:13:21;;;;;;;6.75;3.95;;;20.10;99.90;;;;;;5064681;28;20029;-72
2022/08/07 08:15:50;;;;;;;5.65;3.67;;;20.20;99.90;;;;;;5056311;28;20067;-74
2022/08/07 08:18:16;;;;;;;9.02;3.95;;;20.30;99.90;;;;;;5068491;28;20025;-70
2022/08/07 08:20:42;;;;;;;6.35;3.35;;;20.40;99.90;;;;;;5066222;28;20055;-70
2022/08/07 08:29:00;;;;;;;3.88;3.10;;;20.80;98.60;;;;;;5002140;28;20046;-71
2022/08/07 08:31:29;;;;;;;5.60;3.05;;;20.90;97.90;;;;;;5004057;28;20122;-72
2022/08/07 08:33:56;;;;;;;5.32;3.10;;;21.00;97.30;;;;;;5005509;28;20053;-71
2022/08/07 08:36:25;;;;;;;5.47;2.70;;;21.10;96.60;;;;;;5005604;28;20046;-71
2022/08/07 08:38:54;;;;;;;3.63;2.22;;;21.30;95.90;;;;;;5000563;28;20115;-70
2022/08/07 08:41:47;;;;;;;5.40;2.53;;;21.40;93.00;;;;;;4998799;28;20038;-72
2022/08/07 08:44:27;;;;;;;6.18;2.55;;;21.40;91.70;;;;;;4993483;28;20522;-71
2022/08/07 08:47:22;;;;;;;3.72;3.00;;;21.50;91.20;;;;;;4995210;28;20038;-70
2022/08/07 08:50:20;;;;;;;6.38;3.40;;;21.70;90.70;;;;;;4993308;28;20415;-70
2022/08/07 08:52:56;;;;;;;6.00;3.25;;;21.80;90.50;;;;;;4985936;28;20038;-73
2022/08/07 08:55:35;;;;;;;5.00;2.80;;;21.90;90.50;;;;;;5006312;28;20272;-73
2022/08/07 08:58:34;;;;;;;3.88;1.67;;;22.00;90.10;;;;;;5003479;28;20041;-73
2022/08/07 09:01:06;;;;;;;4.85;1.80;;;22.10;83.70;;;;;;4985652;28;20501;-70
2022/08/07 09:03:38;;;;;;;3.03;1.60;;;22.30;81.70;;;;;;5007567;28;20057;-72
2022/08/07 09:06:41;;;;;;;1.88;1.45;;;22.40;79.40;;;;;;5079983;28;20027;-71
2022/08/07 09:09:42;;;;;;;3.95;2.03;;;22.50;74.00;;;;;;5015909;28;20033;-71
2022/08/07 09:12:26;;;;;;;6.53;1.90;;;22.60;74.80;;;;;;5017302;28;20037;-71
2022/08/07 09:15:10;;;;;;;3.22;2.20;;;22.80;75.10;;;;;;5019321;28;20029;-73
2022/08/07 09:17:47;;;;;;;3.88;1.80;;;22.80;74.20;;;;;;5019438;28;20061;-70
2022/08/07 09:20:46;;;;;;;2.20;1.98;;;22.80;72.20;;;;;;5014764;28;20028;-71
2022/08/07 09:23:32;;;;;;;2.78;1.88;;;22.90;68.30;;;;;;5008371;28;20442;-72
2022/08/07 09:26:21;;;;;;;4.10;2.20;;;23.00;68.60;;;;;;5008850;28;20044;-71
2022/08/07 09:28:53;;;;;;;5.22;2.00;;;23.00;68.90;;;;;;5011914;28;20072;-70
2022/08/07 09:31:22;;;;;;;5.00;2.20;;;23.20;70.20;;;;;;5014128;28;20494;-72
2022/08/07 09:34:02;;;;;;;2.10;1.70;;;23.30;69.30;;;;;;5013861;28;20033;-71
2022/08/07 09:36:59;;;;;;;4.78;2.20;;;23.30;66.10;;;;;;5013028;28;20083;-71
2022/08/07 09:39:35;;;;;;;3.42;1.83;;;23.30;65.80;;;;;;5013028;28;20086;-71
2022/08/07 09:42:10;;;;;;;4.60;2.05;;;23.40;66.20;;;;;;5014097;28;20014;-71
2022/08/07 09:44:45;;;;;;;5.20;2.10;;;23.60;66.10;;;;;;5044130;28;20056;-73
2022/08/07 09:47:32;;;;;;;3.45;1.90;;;23.80;65.20;;;;;;5078152;28;20553;-71
2022/08/07 09:50:05;;;;;;;3.55;2.17;;;23.90;65.80;;;;;;5076378;28;20028;-72
2022/08/07 09:52:36;;;;;;;4.22;2.20;;;24.00;66.10;;;;;;5073631;28;20036;-72
2022/08/07 09:55:16;;;;;;;4.32;2.00;;;23.90;65.90;;;;;;5068204;28;20061;-73
2022/08/07 09:58:29;;;;;;;4.00;2.22;;;23.80;66.30;;;;;;5063661;28;20050;-72
2022/08/07 10:01:24;;;;;;;10.43;2.50;;;23.80;66.50;;;;;;4982651;28;20042;-72
2022/08/07 10:04:17;;;;;;;3.90;2.30;;;23.80;66.00;;;;;;4981244;28;20269;-72
2022/08/07 10:07:12;;;;;;;4.57;2.28;;;24.00;65.70;;;;;;4986194;28;20170;-73
2022/08/07 10:10:05;;;;;;;4.78;1.80;;;24.30;64.90;;;;;;4985038;28;20034;-72
2022/08/07 10:12:58;;;;;;;5.20;2.30;;;24.40;65.00;;;;;;4983048;28;20392;-72
2022/08/07 10:15:42;;;;;;;2.50;1.83;;;24.50;64.30;;;;;;4986219;28;20030;-72
2022/08/07 10:18:42;;;;;;;3.28;2.03;;;24.60;61.70;;;;;;4983355;28;20067;-74
2022/08/07 10:21:25;;;;;;;5.68;2.38;;;24.50;62.90;;;;;;4980432;28;20026;-72
2022/08/07 10:24:12;;;;;;;4.25;2.30;;;24.60;64.00;;;;;;4960322;28;20039;-73
2022/08/07 10:27:06;;;;;;;9.82;2.40;;;24.80;65.10;;;;;;4982278;28;20441;-71
2022/08/07 10:29:54;;;;;;;3.47;2.50;;;24.80;65.70;;;;;;4981887;28;20053;-72
2022/08/07 10:32:57;;;;;;;4.13;2.40;;;24.90;67.10;;;;;;4986639;28;20026;-74
2022/08/07 10:35:28;;;;;;;7.55;2.65;;;24.90;66.10;;;;;;4984133;28;20069;-74
2022/08/07 10:38:06;;;;;;;4.93;2.28;;;24.80;66.40;;;;;;5061631;28;20017;-74
2022/08/07 10:40:46;;;;;;;5.93;2.50;;;24.80;66.50;;;;;;5084278;28;20028;-74
2022/08/07 10:43:32;;;;;;;4.10;2.22;;;24.90;65.90;;;;;;5084109;28;20020;-75
2022/08/07 10:46:00;;;;;;;6.07;2.13;;;24.90;66.80;;;;;;5082787;28;20377;-73
2022/08/07 10:48:49;;;;;;;4.55;2.10;;;24.90;66.90;;;;;;5079148;28;20376;-72
2022/08/07 10:51:50;;;;;;;2.20;2.00;;;25.10;66.10;;;;;;5055037;28;20104;-71
2022/08/07 10:54:34;;;;;;;4.78;2.20;;;25.20;66.00;;;;;;5029676;28;20480;-71
2022/08/07 10:57:09;;;;;;;4.60;2.28;;;25.20;64.90;;;;;;5064934;28;20082;-72
2022/08/07 10:59:41;;;;;;;;;;;25.20;64.60;;;;;;5060030;28;20029;-72
2022/08/07 11:02:46;;;;;;;4.68;2.13;;;25.10;64.30;;;;;;5067383;28;19940;-70
2022/08/07 11:05:41;;;;;;;2.40;1.77;;;25.10;63.10;;;;;;5069425;28;20059;-72
2022/08/07 11:08:33;;;;;;;4.03;1.65;;;25.00;62.60;;;;;;5071655;28;20261;-73
2022/08/07 11:11:07;;;;;;;3.67;1.77;;;25.00;61.90;;;;;;5073426;28;20036;-73
2022/08/07 11:13:54;;;;;;;5.57;1.70;;;25.00;60.90;;;;;;5069924;28;20380;-73
2022/08/07 11:16:48;;;;;;;5.30;1.90;;;24.90;60.40;;;;;;5065359;28;20036;-72
2022/08/07 11:19:25;;;;;;;2.72;1.70;;;25.00;60.60;;;;;;5068665;28;20052;-73
2022/08/07 11:22:06;;;;;;;3.05;2.00;;;25.10;60.40;;;;;;5068599;28;20037;-73
2022/08/07 11:24:41;;;;;;;2.47;1.63;;;25.20;59.40;;;;;;5068649;28;20048;-73
2022/08/07 11:27:28;;;;;;;2.85;1.45;;;25.20;60.40;;;;;;5067710;28;20028;-73
2022/08/07 11:30:09;;;;;;;2.67;1.60;;;25.20;58.50;;;;;;5075662;28;20043;-74
2022/08/07 11:32:42;;;;;;;3.65;1.48;;;25.30;58.40;;;;;;5069707;28;20035;-75
2022/08/07 11:35:15;;;;;;;2.72;1.25;;;25.50;58.00;;;;;;5074112;28;20028;-74
2022/08/07 11:38:13;;;;;;;2.55;1.20;;;25.60;58.00;;;;;;5066557;28;20064;-73
2022/08/07 11:41:08;;;;;;;2.55;1.42;;;25.70;56.10;;;;;;5038850;28;20499;-73
2022/08/07 11:44:02;;;;;;;1.58;1.10;;;25.60;55.80;;;;;;5057750;28;20393;-74
2022/08/07 11:46:59;;;;;;;1.55;1.05;;;25.60;54.90;;;;;;5075220;28;20012;-75
2022/08/07 11:49:46;;;;;;;3.05;1.13;;;25.60;54.60;;;;;;5068542;28;20028;-76
2022/08/07 11:52:26;;;;;;;2.42;1.13;;;25.50;54.50;;;;;;5086232;28;20023;-73
2022/08/07 11:55:07;;;;;;;2.05;1.10;;;25.60;54.60;;;;;;5085253;28;20017;-74
2022/08/07 11:57:36;;;;;;;2.65;1.30;;;25.60;54.30;;;;;;5077693;28;20044;-74
2022/08/07 12:00:15;;;;;;;1.92;1.20;;;25.80;53.80;;;;;;5090520;28;20104;-74
2022/08/07 12:02:55;;;;;;;3.30;1.40;;;25.70;53.30;;;;;;5081938;28;20071;-74
2022/08/07 12:05:39;;;;;;;2.45;1.55;;;25.50;53.50;;;;;;5088189;28;20033;-74
2022/08/07 12:08:28;;;;;;;2.55;1.60;;;25.50;54.20;;;;;;5078464;28;20082;-73
2022/08/07 12:11:02;;;;;;;3.65;2.20;;;25.50;53.90;;;;;;5075758;28;20361;-73
2022/08/07 12:13:52;;;;;;;4.90;2.30;;;25.40;55.00;;;;;;5082335;28;20068;-73
2022/08/07 12:16:27;;;;;;;3.42;1.90;;;25.30;55.40;;;;;;5078008;28;20042;-73
2022/08/07 12:19:20;;;;;;;29.20;26.15;;;25.20;54.70;;;;;;5090746;28;20027;-77
2022/08/07 12:21:57;;;;;;;50.92;45.63;;;25.10;55.10;;;;;;5089280;28;20029;-74
2022/08/07 12:27:59;;;;;;;3.22;2.00;;;25.10;54.50;;;;;;5087410;28;20022;-75
2022/08/07 12:30:31;;;;;;;3.35;2.00;;;24.90;55.50;;;;;;5087844;28;20036;-77
2022/08/07 12:33:05;;;;;;;5.80;1.73;;;24.90;56.20;;;;;;5075888;28;20058;-75
2022/08/07 12:35:36;;;;;;;3.33;1.60;;;25.10;56.20;;;;;;5094249;28;20036;-75
2022/08/07 12:38:03;;;;;;;3.50;1.90;;;25.20;55.70;;;;;;5096311;28;20031;-74
2022/08/07 12:40:31;;;;;;;2.22;1.80;;;25.30;55.60;;;;;;5090202;28;20013;-78
2022/08/07 12:43:01;;;;;;;4.88;2.10;;;25.30;55.20;;;;;;5092900;28;20024;-75
2022/08/07 12:45:51;;;;;;;2.60;1.80;;;25.20;55.60;;;;;;5094539;28;20021;-75
2022/08/07 12:48:19;;;;;;;6.60;2.03;;;25.20;56.10;;;;;;5091225;28;20050;-75
2022/08/07 12:50:58;;;;;;;4.03;2.30;;;25.20;56.50;;;;;;5094871;28;20016;-77
2022/08/07 12:53:42;;;;;;;4.45;1.80;;;25.40;57.00;;;;;;5092638;28;20036;-74
2022/08/07 12:56:17;;;;;;;1.70;1.60;;;25.50;55.80;;;;;;5075407;28;20051;-74
2022/08/07 12:58:46;;;;;;;3.97;1.83;;;25.60;55.80;;;;;;5082703;28;20032;-72
2022/08/07 13:01:41;;;;;;;3.95;1.77;;;25.70;56.00;;;;;;5067543;28;20594;-70
2022/08/07 13:04:45;;;;;;;3.25;1.70;;;25.80;55.90;;;;;;5089887;28;20108;-73
2022/08/07 13:07:25;;;;;;;4.20;1.80;;;25.80;55.00;;;;;;5069758;28;20035;-70
2022/08/07 13:10:35;;;;;;;4.65;2.00;;;25.70;54.50;;;;;;5088595;28;20089;-70
2022/08/07 13:13:15;;;;;;;3.80;1.80;;;25.50;55.30;;;;;;4986807;28;20034;-72
2022/08/07 13:15:58;;;;;;;4.10;1.83;;;25.40;55.70;;;;;;4984358;28;20070;-73
2022/08/07 13:18:37;;;;;;;5.07;2.22;;;25.50;56.30;;;;;;4983463;28;20034;-74
2022/08/07 13:21:20;;;;;;;4.20;2.25;;;25.50;56.40;;;;;;4971172;28;20023;-74
2022/08/07 13:24:07;;;;;;;4.20;2.20;;;25.60;56.30;;;;;;4969324;28;20047;-74
2022/08/07 13:26:44;;;;;;;6.25;1.95;;;25.60;56.30;;;;;;4977930;28;20037;-74